Time;durP1;ratioP1;P1;durP2;ratioP2;P2;SDS_P1;SDS_P2;PMS_P1;PMS_P2;Temp;Humidity;BMP_temperature;BMP_pressure;BME280_temperature;BME280_humidity;BME280_pressure;Samples;Min_cycle;Max_cycle;Signal;HPM_P1;HPM_P2
2021/01/24 00:01:08;;;;;;;11.57;6.90;;;;;;;-144.15;100.00;63241.31;1027859;28;20520;-63
2021/01/24 00:02:37;;;;;;;11.10;7.07;;;;;;;-144.15;100.00;63241.31;1030790;28;20034;-65
2021/01/24 00:04:06;;;;;;;12.70;7.53;;;;;;;-144.15;100.00;63241.31;1030843;28;20559;-64
2021/01/24 00:05:35;;;;;;;11.60;7.50;;;;;;;-144.15;100.00;63241.31;1038898;28;20095;-64
2021/01/24 00:07:04;;;;;;;12.75;7.70;;;;;;;-144.15;100.00;63241.31;1034590;28;20041;-66
2021/01/24 00:08:33;;;;;;;13.18;8.18;;;;;;;-144.15;100.00;63241.31;1039269;28;20039;-66
2021/01/24 00:10:03;;;;;;;11.85;8.30;;;;;;;-144.15;100.00;63241.31;1038209;28;20162;-64
2021/01/24 00:11:32;;;;;;;11.00;7.22;;;;;;;-144.15;100.00;63241.31;1038712;28;20042;-64
2021/01/24 00:13:01;;;;;;;14.52;8.65;;;;;;;-144.15;100.00;63241.31;1034850;28;20026;-65
2021/01/24 00:14:30;;;;;;;13.55;9.43;;;;;;;-144.15;100.00;63241.31;1031527;28;20030;-64
2021/01/24 00:15:59;;;;;;;14.00;8.80;;;;;;;-144.15;100.00;63241.31;1038483;28;20805;-65
2021/01/24 00:17:28;;;;;;;13.05;8.88;;;;;;;-144.15;100.00;63241.31;1034997;28;20037;-65
2021/01/24 00:18:57;;;;;;;13.55;9.68;;;;;;;-144.15;100.00;63241.31;1030717;28;20147;-65
2021/01/24 00:20:26;;;;;;;15.77;10.23;;;;;;;-144.15;100.00;63241.31;1030577;28;20038;-65
2021/01/24 00:21:55;;;;;;;16.25;10.30;;;;;;;-144.15;100.00;63241.31;1034382;28;20510;-63
2021/01/24 00:23:24;;;;;;;19.98;11.15;;;;;;;-144.15;100.00;63241.31;1036983;28;20507;-65
2021/01/24 00:24:53;;;;;;;17.55;10.82;;;;;;;-144.15;100.00;63241.31;1034681;28;20499;-63
2021/01/24 00:26:22;;;;;;;18.02;11.35;;;;;;;-144.15;100.00;63241.31;1034663;28;20037;-64
2021/01/24 00:27:51;;;;;;;17.15;10.50;;;;;;;-144.15;100.00;63241.31;1034460;28;20105;-65
2021/01/24 00:29:20;;;;;;;17.70;10.55;;;;;;;-144.15;100.00;63241.31;1038688;28;20063;-65
2021/01/24 00:30:49;;;;;;;16.52;10.85;;;;;;;-144.15;100.00;63241.31;1030624;28;20026;-64
2021/01/24 00:32:18;;;;;;;17.67;11.40;;;;;;;-144.15;100.00;63241.31;1034957;28;20049;-64
2021/01/24 00:33:47;;;;;;;15.35;10.25;;;;;;;-144.15;100.00;63241.31;1035304;28;20084;-65
2021/01/24 00:35:16;;;;;;;15.75;10.27;;;;;;;-144.15;100.00;63241.31;1035687;28;20124;-64
2021/01/24 00:36:45;;;;;;;14.35;9.15;;;;;;;-144.15;100.00;63241.31;1039336;28;20625;-65
2021/01/24 00:38:14;;;;;;;11.18;7.32;;;;;;;-144.15;100.00;63241.31;1034450;28;20563;-64
2021/01/24 00:39:43;;;;;;;9.70;6.28;;;;;;;-144.15;100.00;63241.31;1030335;28;20031;-64
2021/01/24 00:41:12;;;;;;;6.75;5.22;;;;;;;-144.15;100.00;63241.31;1034578;28;20025;-65
2021/01/24 00:42:41;;;;;;;6.78;4.85;;;;;;;-144.15;100.00;63241.31;1038043;28;20064;-63
2021/01/24 00:44:10;;;;;;;8.15;5.40;;;;;;;-144.15;100.00;63241.31;1033174;28;20037;-63
2021/01/24 00:45:39;;;;;;;8.50;5.75;;;;;;;-144.15;100.00;63241.31;1035107;28;20034;-64
2021/01/24 00:47:08;;;;;;;7.38;5.25;;;;;;;-144.15;100.00;63241.31;1034766;28;20157;-63
2021/01/24 00:48:37;;;;;;;7.65;5.00;;;;;;;-144.15;100.00;63241.31;1031027;28;20459;-64
2021/01/24 00:50:06;;;;;;;5.93;3.90;;;;;;;-144.15;100.00;63241.31;1038989;28;20474;-64
2021/01/24 00:51:35;;;;;;;6.10;3.90;;;;;;;-144.15;100.00;63241.31;1034683;28;20081;-63
2021/01/24 00:53:04;;;;;;;6.55;4.68;;;;;;;-144.15;100.00;63241.31;1030529;28;20038;-63
2021/01/24 00:54:33;;;;;;;7.57;4.43;;;;;;;-144.15;100.00;63241.31;1030692;28;20113;-63
2021/01/24 00:56:02;;;;;;;6.93;4.28;;;;;;;-144.15;100.00;63241.31;1030946;28;20030;-63
2021/01/24 00:57:31;;;;;;;5.07;3.05;;;;;;;-144.15;100.00;63241.31;1034875;28;20196;-64
2021/01/24 00:59:00;;;;;;;10.55;4.28;;;;;;;-144.15;100.00;63241.31;1034587;28;20030;-63
2021/01/24 01:00:29;;;;;;;5.88;4.18;;;;;;;-144.15;100.00;63241.31;1034798;28;20072;-64
2021/01/24 01:01:58;;;;;;;6.57;4.18;;;;;;;-144.15;100.00;63241.31;1034997;28;20771;-65
2021/01/24 01:03:27;;;;;;;8.25;4.32;;;;;;;-144.15;100.00;63241.31;1030270;28;20444;-63
2021/01/24 01:04:56;;;;;;;5.10;3.78;;;;;;;-144.15;100.00;63241.31;1030497;28;20073;-64
2021/01/24 01:06:25;;;;;;;5.55;3.53;;;;;;;-144.15;100.00;63241.31;1033029;28;20046;-64
2021/01/24 01:07:53;;;;;;;5.10;3.53;;;;;;;-144.15;100.00;63241.31;1035483;28;20372;-64
2021/01/24 01:09:22;;;;;;;5.18;3.30;;;;;;;-144.15;100.00;63241.31;1030801;28;20049;-64
2021/01/24 01:10:51;;;;;;;6.68;2.97;;;;;;;-144.15;100.00;63241.31;1030988;28;20503;-64
2021/01/24 01:12:20;;;;;;;4.93;3.08;;;;;;;-144.15;100.00;63241.31;1034849;28;20524;-64
2021/01/24 01:13:49;;;;;;;2.88;2.58;;;;;;;-144.15;100.00;63241.31;1034542;28;20427;-64
2021/01/24 01:15:18;;;;;;;3.90;2.65;;;;;;;-144.15;100.00;63241.31;1038527;28;20029;-64
2021/01/24 01:16:47;;;;;;;4.28;2.90;;;;;;;-144.15;100.00;63241.31;1038722;28;20673;-64
2021/01/24 01:18:16;;;;;;;2.88;2.38;;;;;;;-144.15;100.00;63241.31;1024653;28;20427;-64
2021/01/24 01:19:45;;;;;;;3.03;2.67;;;;;;;-144.15;100.00;63241.31;1030470;28;20492;-64
2021/01/24 01:21:14;;;;;;;2.97;2.40;;;;;;;-144.15;100.00;63241.31;1034733;28;20049;-65
2021/01/24 01:22:43;;;;;;;3.78;2.60;;;;;;;-144.15;100.00;63241.31;1031289;28;20068;-66
2021/01/24 01:24:12;;;;;;;3.95;2.25;;;;;;;-144.15;100.00;63241.31;1038773;28;20045;-64
2021/01/24 01:25:41;;;;;;;3.63;2.78;;;;;;;-144.15;100.00;63241.31;1030088;28;20034;-63
2021/01/24 01:27:11;;;;;;;2.70;2.13;;;;;;;-144.15;100.00;63241.31;1030559;28;20137;-65
2021/01/24 01:28:40;;;;;;;3.28;2.05;;;;;;;-144.15;100.00;63241.31;1030594;28;20030;-65
2021/01/24 01:30:09;;;;;;;2.00;1.80;;;;;;;-144.15;100.00;63241.31;1034927;28;20033;-63
2021/01/24 01:31:38;;;;;;;3.42;2.40;;;;;;;-144.15;100.00;63241.31;1035131;28;20088;-65
2021/01/24 01:33:07;;;;;;;3.47;2.38;;;;;;;-144.15;100.00;63241.31;1034629;28;20095;-64
2021/01/24 01:34:36;;;;;;;2.45;2.22;;;;;;;-144.15;100.00;63241.31;1034570;28;20117;-64
2021/01/24 01:36:05;;;;;;;2.28;2.00;;;;;;;-144.15;100.00;63241.31;1025816;28;20059;-63
2021/01/24 01:37:34;;;;;;;2.55;1.95;;;;;;;-144.15;100.00;63241.31;1029292;28;20110;-64
2021/01/24 01:39:03;;;;;;;2.40;2.00;;;;;;;-144.15;100.00;63241.31;1034148;28;20443;-64
2021/01/24 01:40:32;;;;;;;2.85;2.22;;;;;;;-144.15;100.00;63241.31;1034973;28;20088;-64
2021/01/24 01:42:01;;;;;;;1.85;1.70;;;;;;;-144.15;100.00;63241.31;1030749;28;20145;-63
2021/01/24 01:43:30;;;;;;;2.13;1.98;;;;;;;-144.15;100.00;63241.31;1026903;28;20035;-63
2021/01/24 01:44:59;;;;;;;2.03;1.83;;;;;;;-144.15;100.00;63241.31;1026764;28;20050;-63
2021/01/24 01:46:28;;;;;;;2.00;1.88;;;;;;;-144.15;100.00;63241.31;1034700;28;20813;-64
2021/01/24 01:47:57;;;;;;;2.53;1.92;;;;;;;-144.15;100.00;63241.31;1035134;28;20801;-64
2021/01/24 01:49:26;;;;;;;2.38;1.85;;;;;;;-144.15;100.00;63241.31;1034636;28;20034;-66
2021/01/24 01:50:56;;;;;;;2.35;1.70;;;;;;;-144.15;100.00;63241.31;1034264;28;20685;-66
2021/01/24 01:52:25;;;;;;;2.17;1.98;;;;;;;-144.15;100.00;63241.31;1034512;28;20117;-65
2021/01/24 01:53:57;;;;;;;2.30;2.10;;;;;;;-144.15;100.00;63241.31;1034215;28;20117;-65
2021/01/24 01:55:26;;;;;;;2.40;2.20;;;;;;;-144.15;100.00;63241.31;1034614;28;20038;-66
2021/01/24 01:56:55;;;;;;;1.80;1.70;;;;;;;-144.15;100.00;63241.31;1030752;28;20167;-66
2021/01/24 01:58:24;;;;;;;1.88;1.67;;;;;;;-144.15;100.00;63241.31;1034781;28;20446;-65
2021/01/24 01:59:53;;;;;;;2.65;1.58;;;;;;;-144.15;100.00;63241.31;1038241;28;20117;-65
2021/01/24 02:01:34;;;;;;;2.88;2.08;;;;;;;-144.15;100.00;63241.31;1034438;28;20065;-66
2021/01/24 02:03:18;;;;;;;2.95;1.73;;;;;;;-144.15;100.00;63241.31;1030492;28;20093;-64
2021/01/24 02:05:01;;;;;;;2.30;1.90;;;;;;;-144.15;100.00;63241.31;1033715;28;20533;-64
2021/01/24 02:06:45;;;;;;;2.47;1.92;;;;;;;-144.15;100.00;63241.31;1034120;28;20026;-64
2021/01/24 02:08:52;;;;;;;1.98;1.80;;;;;;;-144.15;100.00;63241.31;1033726;28;20515;-64
2021/01/24 02:10:33;;;;;;;2.10;1.90;;;;;;;-144.15;100.00;63241.31;1029062;28;20030;-64
2021/01/24 02:12:24;;;;;;;2.30;2.00;;;;;;;-144.15;100.00;63241.31;1029330;28;20467;-65
2021/01/24 02:14:05;;;;;;;2.47;2.28;;;;;;;-144.15;100.00;63241.31;1033315;28;20037;-65
2021/01/24 02:15:36;;;;;;;2.40;2.20;;;;;;;-144.15;100.00;63241.31;1028003;28;20109;-64
2021/01/24 02:16:07;;;;;;;2.30;2.10;;;;;;;-0.14;100.00;93564.41;1030525;28;20694;-63
2021/01/24 02:16:37;;;;;;;2.13;1.90;;;;;;;-0.17;100.00;93556.41;1026285;28;20019;-63
2021/01/24 02:17:10;;;;;;;2.20;1.83;;;;;;;-0.13;100.00;93565.97;1022397;29;20071;-64
2021/01/24 02:17:46;;;;;;;3.67;2.40;;;;;;;-0.20;100.00;93547.38;1026482;28;20025;-63
2021/01/24 02:19:26;;;;;;;2.42;2.05;;;;;;;-144.15;100.00;63241.31;1017528;29;20513;-64
2021/01/24 02:21:04;;;;;;;2.28;2.08;;;;;;;-144.15;100.00;63241.31;1023388;28;20035;-64
2021/01/24 02:22:35;;;;;;;2.10;1.90;;;;;;;-144.15;100.00;63241.31;1034782;28;20613;-64
2021/01/24 02:24:06;;;;;;;3.85;1.95;;;;;;;-144.15;100.00;63241.31;1030847;28;20533;-65
2021/01/24 02:25:40;;;;;;;2.33;2.13;;;;;;;-144.15;100.00;63241.31;1031284;28;20400;-65
2021/01/24 02:27:12;;;;;;;2.55;1.95;;;;;;;-0.20;100.00;93547.38;1035268;28;20061;-64
2021/01/24 02:28:45;;;;;;;2.05;1.85;;;;;;;-144.15;100.00;63241.31;1032186;28;20097;-65
2021/01/24 02:30:37;;;;;;;2.30;2.10;;;;;;;-144.15;100.00;63241.31;1035003;28;20513;-64
2021/01/24 02:32:06;;;;;;;2.05;1.77;;;;;;;-144.15;100.00;63241.31;1030478;28;20599;-64
2021/01/24 02:33:35;;;;;;;2.58;1.95;;;;;;;-144.15;100.00;63241.31;1030630;28;20112;-64
2021/01/24 02:35:04;;;;;;;2.17;1.98;;;;;;;-144.15;100.00;63241.31;1034343;28;20116;-64
2021/01/24 02:36:34;;;;;;;2.40;2.20;;;;;;;-144.15;100.00;63241.31;1030955;28;20080;-66
2021/01/24 02:38:04;;;;;;;2.10;1.90;;;;;;;-144.15;100.00;63241.31;1035117;28;20045;-65
2021/01/24 02:39:33;;;;;;;2.20;2.00;;;;;;;-144.15;100.00;63241.31;1031077;28;20058;-63
2021/01/24 02:41:02;;;;;;;2.67;2.40;;;;;;;-144.15;100.00;63241.31;1031406;28;20805;-66
2021/01/24 02:42:32;;;;;;;2.10;1.90;;;;;;;-144.15;100.00;63241.31;1035326;28;20040;-64
2021/01/24 02:44:02;;;;;;;2.13;1.80;;;;;;;-144.15;100.00;63241.31;1031221;28;20037;-64
2021/01/24 02:45:31;;;;;;;2.42;1.75;;;;;;;-144.15;100.00;63241.31;1027187;28;20592;-63
2021/01/24 02:47:00;;;;;;;2.55;1.80;;;;;;;-144.15;100.00;63241.31;1031105;28;20104;-67
2021/01/24 02:48:29;;;;;;;2.28;2.08;;;;;;;-144.15;100.00;63241.31;1030483;28;20041;-64
2021/01/24 02:49:58;;;;;;;2.13;1.90;;;;;;;-144.15;100.00;63241.31;1034048;28;20040;-65
2021/01/24 02:51:27;;;;;;;2.58;2.38;;;;;;;-144.15;100.00;63241.31;1035115;28;20511;-63
2021/01/24 02:52:57;;;;;;;2.17;1.88;;;;;;;-144.15;100.00;63241.31;1031365;28;20039;-64
2021/01/24 02:54:27;;;;;;;1.92;1.63;;;;;;;-144.15;100.00;63241.31;1035365;28;20554;-64
2021/01/24 02:55:56;;;;;;;2.08;1.88;;;;;;;-144.15;100.00;63241.31;1026573;28;20097;-64
2021/01/24 02:57:25;;;;;;;2.42;2.20;;;;;;;-144.15;100.00;63241.31;1035350;28;20539;-63
2021/01/24 02:58:54;;;;;;;2.75;1.92;;;;;;;-144.15;100.00;63241.31;1034677;28;20511;-66
2021/01/24 03:00:24;;;;;;;4.05;2.00;;;;;;;-144.15;100.00;63241.31;1031380;28;20030;-64
2021/01/24 03:01:53;;;;;;;2.15;1.90;;;;;;;-144.15;100.00;63241.31;1034589;28;20741;-65
2021/01/24 03:03:21;;;;;;;2.10;1.90;;;;;;;-144.15;100.00;63241.31;1038616;28;20486;-64
2021/01/24 03:04:50;;;;;;;1.85;1.67;;;;;;;-144.15;100.00;63241.31;1035211;28;20467;-64
2021/01/24 03:06:20;;;;;;;1.73;1.45;;;;;;;-144.15;100.00;63241.31;1034875;28;20033;-63
2021/01/24 03:07:49;;;;;;;1.95;1.80;;;;;;;-144.15;100.00;63241.31;1031178;28;20035;-65
2021/01/24 03:09:18;;;;;;;1.60;1.45;;;;;;;-144.15;100.00;63241.31;1027304;28;20283;-66
2021/01/24 03:10:47;;;;;;;1.83;1.20;;;;;;;-144.15;100.00;63241.31;1035291;28;20036;-65
2021/01/24 03:12:16;;;;;;;1.95;1.70;;;;;;;-144.15;100.00;63241.31;1031029;28;20038;-65
2021/01/24 03:13:55;;;;;;;2.10;1.60;;;;;;;-144.15;100.00;63241.31;1030804;28;20034;-66
2021/01/24 03:15:24;;;;;;;2.47;1.75;;;;;;;-144.15;100.00;63241.31;1027769;28;20038;-63
2021/01/24 03:16:57;;;;;;;1.98;1.40;;;;;;;-144.15;100.00;63241.31;1029790;28;20428;-64
2021/01/24 03:18:26;;;;;;;2.53;1.52;;;;;;;-144.15;100.00;63241.31;1034864;28;20029;-65
2021/01/24 03:19:55;;;;;;;2.50;1.63;;;;;;;-144.15;100.00;63241.31;1031113;28;20033;-64
2021/01/24 03:21:25;;;;;;;1.60;1.33;;;;;;;-144.15;100.00;63241.31;1022905;28;20122;-64
2021/01/24 03:22:54;;;;;;;1.23;1.13;;;;;;;-144.15;100.00;63241.31;1030859;28;20113;-64
2021/01/24 03:24:23;;;;;;;1.23;1.13;;;;;;;-144.15;100.00;63241.31;1027222;28;20035;-65
2021/01/24 03:25:52;;;;;;;1.40;1.30;;;;;;;-144.15;100.00;63241.31;1024926;28;20023;-64
2021/01/24 03:27:21;;;;;;;1.52;1.42;;;;;;;-144.15;100.00;63241.31;1038221;28;20036;-65
2021/01/24 03:28:50;;;;;;;1.50;1.30;;;;;;;-144.15;100.00;63241.31;1031212;28;20042;-65
2021/01/24 03:30:19;;;;;;;1.85;1.33;;;;;;;-144.15;100.00;63241.31;1030999;28;20042;-65
2021/01/24 03:31:48;;;;;;;1.30;1.20;;;;;;;-144.15;100.00;63241.31;1030984;28;20038;-65
2021/01/24 03:33:17;;;;;;;2.28;1.58;;;;;;;-144.15;100.00;63241.31;1030880;28;20038;-64
2021/01/24 03:34:46;;;;;;;0.95;0.95;;;;;;;-144.15;100.00;63241.31;1039109;28;20029;-65
2021/01/24 03:36:15;;;;;;;0.80;0.75;;;;;;;-144.15;100.00;63241.31;1038763;28;20061;-64
2021/01/24 03:37:44;;;;;;;1.25;1.15;;;;;;;-144.15;100.00;63241.31;1034907;28;20407;-64
2021/01/24 03:39:13;;;;;;;2.45;1.30;;;;;;;-144.15;100.00;63241.31;1030410;28;20037;-64
2021/01/24 03:40:42;;;;;;;1.33;1.00;;;;;;;-144.15;100.00;63241.31;1026955;28;20190;-64
2021/01/24 03:42:11;;;;;;;1.30;1.20;;;;;;;-144.15;100.00;63241.31;1035315;28;20025;-65
2021/01/24 03:43:40;;;;;;;1.35;0.93;;;;;;;-144.15;100.00;63241.31;1031087;28;20030;-64
2021/01/24 03:45:09;;;;;;;1.10;1.00;;;;;;;-144.15;100.00;63241.31;1039404;28;20029;-63
2021/01/24 03:46:38;;;;;;;1.27;1.10;;;;;;;-144.15;100.00;63241.31;1034836;28;20117;-65
2021/01/24 03:48:07;;;;;;;1.17;1.05;;;;;;;-144.15;100.00;63241.31;1038081;28;20044;-63
2021/01/24 03:49:36;;;;;;;1.33;1.20;;;;;;;-144.15;100.00;63241.31;1036377;28;20038;-63
2021/01/24 03:51:05;;;;;;;1.15;1.05;;;;;;;-144.15;100.00;63241.31;1038592;28;20545;-65
2021/01/24 03:52:34;;;;;;;1.30;1.15;;;;;;;-144.15;100.00;63241.31;1043130;28;20091;-64
2021/01/24 03:54:03;;;;;;;0.77;0.77;;;;;;;-144.15;100.00;63241.31;1030606;28;20057;-65
2021/01/24 03:55:32;;;;;;;2.10;0.88;;;;;;;-144.15;100.00;63241.31;1034983;28;20107;-64
2021/01/24 03:57:01;;;;;;;1.33;0.93;;;;;;;-144.15;100.00;63241.31;1035775;28;20100;-64
2021/01/24 03:58:31;;;;;;;1.08;0.85;;;;;;;-144.15;100.00;63241.31;1035128;28;20316;-65
2021/01/24 04:00:00;;;;;;;1.10;1.00;;;;;;;-144.15;100.00;63241.31;1034202;28;20072;-65
2021/01/24 04:01:30;;;;;;;1.00;0.90;;;;;;;-144.15;100.00;63241.31;1030415;28;20131;-64
2021/01/24 04:02:59;;;;;;;0.60;0.60;;;;;;;-144.15;100.00;63241.31;1031083;28;20034;-64
2021/01/24 04:04:28;;;;;;;2.08;1.00;;;;;;;-144.15;100.00;63241.31;1030915;28;20038;-64
2021/01/24 04:05:57;;;;;;;1.52;1.08;;;;;;;-144.15;100.00;63241.31;1030280;28;20031;-64
2021/01/24 04:07:26;;;;;;;1.10;0.95;;;;;;;-144.15;100.00;63241.31;1034827;28;20034;-64
2021/01/24 04:08:54;;;;;;;1.35;0.75;;;;;;;-144.15;100.00;63241.31;1034752;28;20084;-65
2021/01/24 04:10:23;;;;;;;1.60;1.00;;;;;;;-144.15;100.00;63241.31;1029984;28;20037;-63
2021/01/24 04:11:52;;;;;;;0.60;0.60;;;;;;;-144.15;100.00;63241.31;1030863;28;20085;-64
2021/01/24 04:13:21;;;;;;;1.10;1.00;;;;;;;-144.15;100.00;63241.31;1034750;28;20121;-65
2021/01/24 04:14:50;;;;;;;2.78;0.80;;;;;;;-144.15;100.00;63241.31;1036668;28;20047;-64
2021/01/24 04:16:19;;;;;;;1.00;0.90;;;;;;;-144.15;100.00;63241.31;1035464;28;20034;-64
2021/01/24 04:17:48;;;;;;;1.17;0.50;;;;;;;-144.15;100.00;63241.31;1035842;28;20037;-64
2021/01/24 04:19:17;;;;;;;1.02;0.90;;;;;;;-144.15;100.00;63241.31;1035176;28;20080;-65
2021/01/24 04:20:46;;;;;;;0.63;0.63;;;;;;;-144.15;100.00;63241.31;1030973;28;20066;-67
2021/01/24 04:22:15;;;;;;;1.00;0.70;;;;;;;-144.15;100.00;63241.31;1035528;28;20034;-64
2021/01/24 04:23:44;;;;;;;2.10;0.75;;;;;;;-144.15;100.00;63241.31;1036274;28;20096;-64
2021/01/24 04:25:15;;;;;;;1.90;0.80;;;;;;;-144.15;100.00;63241.31;1030898;28;20138;-64
2021/01/24 04:26:44;;;;;;;1.60;0.80;;;;;;;-144.15;100.00;63241.31;1034864;28;20025;-64
2021/01/24 04:28:13;;;;;;;0.50;0.50;;;;;;;-144.15;100.00;63241.31;1034878;28;20826;-64
2021/01/24 04:29:42;;;;;;;1.77;0.52;;;;;;;-144.15;100.00;63241.31;1038681;28;20041;-65
2021/01/24 04:31:11;;;;;;;0.60;0.55;;;;;;;-144.15;100.00;63241.31;1035130;28;20519;-65
2021/01/24 04:32:40;;;;;;;0.55;0.50;;;;;;;-144.15;100.00;63241.31;1032172;28;20038;-65
2021/01/24 04:34:09;;;;;;;0.60;0.50;;;;;;;-144.15;100.00;63241.31;1039472;28;20026;-64
2021/01/24 04:35:38;;;;;;;1.00;0.50;;;;;;;-144.15;100.00;63241.31;1034947;28;20121;-64
2021/01/24 04:37:07;;;;;;;0.50;0.50;;;;;;;-144.15;100.00;63241.31;1026675;28;20041;-63
2021/01/24 04:38:36;;;;;;;0.65;0.40;;;;;;;-144.15;100.00;63241.31;1035255;28;20037;-63
2021/01/24 04:40:05;;;;;;;0.68;0.50;;;;;;;-144.15;100.00;63241.31;1034630;28;20038;-63
2021/01/24 04:41:35;;;;;;;0.52;0.47;;;;;;;-144.15;100.00;63241.31;1031140;28;20695;-64
2021/01/24 04:43:04;;;;;;;0.98;0.57;;;;;;;-144.15;100.00;63241.31;1038443;28;20030;-64
2021/01/24 04:44:33;;;;;;;1.55;0.50;;;;;;;-144.15;100.00;63241.31;1030234;28;20121;-65
2021/01/24 04:46:03;;;;;;;0.43;0.43;;;;;;;-144.15;100.00;63241.31;1029302;28;20029;-64
2021/01/24 04:47:32;;;;;;;0.82;0.50;;;;;;;-144.15;100.00;63241.31;1026621;28;20047;-64
2021/01/24 04:49:02;;;;;;;0.50;0.50;;;;;;;-144.15;100.00;63241.31;1030586;28;20062;-64
2021/01/24 04:50:31;;;;;;;1.52;0.40;;;;;;;-144.15;100.00;63241.31;1026788;28;20571;-63
2021/01/24 04:52:00;;;;;;;0.40;0.40;;;;;;;-144.15;100.00;63241.31;1031002;28;20023;-63
2021/01/24 04:53:29;;;;;;;0.40;0.40;;;;;;;-144.15;100.00;63241.31;1034966;28;20045;-63
2021/01/24 04:54:58;;;;;;;0.82;0.50;;;;;;;-144.15;100.00;63241.31;1034578;28;20102;-64
2021/01/24 04:56:27;;;;;;;0.50;0.40;;;;;;;-144.15;100.00;63241.31;1021932;28;20035;-64
2021/01/24 04:57:56;;;;;;;0.40;0.40;;;;;;;-144.15;100.00;63241.31;1026291;28;20043;-63
2021/01/24 04:59:26;;;;;;;0.30;0.30;;;;;;;-144.15;100.00;63241.31;1026622;28;20125;-63
2021/01/24 05:00:55;;;;;;;0.55;0.40;;;;;;;-144.15;100.00;63241.31;1026657;28;20476;-63
2021/01/24 05:02:24;;;;;;;0.60;0.47;;;;;;;-144.15;100.00;63241.31;1034706;28;20029;-64
2021/01/24 05:03:53;;;;;;;1.83;0.50;;;;;;;-144.15;100.00;63241.31;1026760;28;20026;-64
2021/01/24 05:05:22;;;;;;;0.32;0.32;;;;;;;-144.15;100.00;63241.31;1030475;28;20038;-64
2021/01/24 05:06:51;;;;;;;0.95;0.50;;;;;;;-144.15;100.00;63241.31;1030887;28;20582;-65
2021/01/24 05:08:23;;;;;;;0.40;0.40;;;;;;;-144.15;100.00;63241.31;1031358;28;20057;-64
2021/01/24 05:09:53;;;;;;;1.08;0.70;;;;;;;-144.15;100.00;63241.31;1035447;28;20373;-64
2021/01/24 05:11:22;;;;;;;0.98;0.82;;;;;;;-144.15;100.00;63241.31;1035183;28;20519;-65
2021/01/24 05:12:51;;;;;;;1.30;0.47;;;;;;;-144.15;100.00;63241.31;1035158;28;20054;-64
2021/01/24 05:14:23;;;;;;;0.40;0.40;;;;;;;-144.15;100.00;63241.31;1034807;28;20029;-65
2021/01/24 05:16:01;;;;;;;0.70;0.50;;;;;;;-144.15;100.00;63241.31;1034175;28;20033;-66
2021/01/24 05:17:30;;;;;;;0.63;0.52;;;;;;;-144.15;100.00;63241.31;1027134;28;20130;-64
2021/01/24 05:18:59;;;;;;;0.50;0.50;;;;;;;-144.15;100.00;63241.31;1034582;28;20499;-65
2021/01/24 05:20:31;;;;;;;0.52;0.43;;;;;;;-144.15;100.00;63241.31;1038387;28;20411;-63
2021/01/24 05:22:02;;;;;;;0.73;0.68;;;;;;;-144.15;100.00;63241.31;1039192;28;20061;-63
2021/01/24 05:23:37;;;;;;;0.50;0.50;;;;;;;-144.15;100.00;63241.31;1035028;28;20515;-64
2021/01/24 05:25:09;;;;;;;0.50;0.50;;;;;;;-144.15;100.00;63241.31;1030747;28;20089;-65
2021/01/24 05:26:39;;;;;;;0.45;0.43;;;;;;;-144.15;100.00;63241.31;1031095;28;20536;-64
2021/01/24 05:28:17;;;;;;;0.40;0.40;;;;;;;-144.15;100.00;63241.31;1034664;28;20058;-65
2021/01/24 05:29:46;;;;;;;0.50;0.40;;;;;;;-144.15;100.00;63241.31;1035735;28;20057;-64
2021/01/24 05:31:22;;;;;;;0.55;0.52;;;;;;;-144.15;100.00;63241.31;1026707;28;20073;-65
2021/01/24 05:32:52;;;;;;;0.50;0.50;;;;;;;-144.15;100.00;63241.31;1030878;28;20042;-65
2021/01/24 05:34:24;;;;;;;0.32;0.32;;;;;;;-144.15;100.00;63241.31;1032928;28;20030;-63
2021/01/24 05:35:53;;;;;;;;;;;;;;;-144.15;100.00;63241.31;1034398;28;20105;-64
2021/01/24 05:37:22;;;;;;;0.60;0.60;;;;;;;-144.15;100.00;63241.31;1035237;28;19913;-65
2021/01/24 05:38:51;;;;;;;0.65;0.63;;;;;;;-144.15;100.00;63241.31;1038943;28;20033;-64
2021/01/24 05:40:20;;;;;;;0.55;0.55;;;;;;;-144.15;100.00;63241.31;1038741;28;20030;-64
2021/01/24 05:41:50;;;;;;;0.40;0.30;;;;;;;-144.15;100.00;63241.31;1030723;28;20038;-64
2021/01/24 05:43:19;;;;;;;0.73;0.50;;;;;;;-144.15;100.00;63241.31;1030722;28;20446;-64
2021/01/24 05:44:48;;;;;;;0.70;0.70;;;;;;;-144.15;100.00;63241.31;1030646;28;20447;-65
2021/01/24 05:46:16;;;;;;;0.57;0.50;;;;;;;-144.15;100.00;63241.31;1030287;28;20106;-64
2021/01/24 05:47:46;;;;;;;0.52;0.52;;;;;;;-144.15;100.00;63241.31;1026227;28;20058;-64
2021/01/24 05:49:41;;;;;;;1.25;0.70;;;;;;;-144.15;100.00;63241.31;1026913;28;20081;-65
2021/01/24 05:51:11;;;;;;;1.13;0.70;;;;;;;-144.15;100.00;63241.31;1034244;28;20435;-64
2021/01/24 05:52:40;;;;;;;1.65;0.93;;;;;;;-144.15;100.00;63241.31;1034688;28;20038;-65
2021/01/24 05:54:09;;;;;;;1.67;0.50;;;;;;;-144.15;100.00;63241.31;1030683;28;20065;-64
2021/01/24 05:55:45;;;;;;;0.80;0.50;;;;;;;-144.15;100.00;63241.31;1034803;28;20029;-65
2021/01/24 05:57:14;;;;;;;0.50;0.50;;;;;;;-144.15;100.00;63241.31;1033967;28;20037;-65
2021/01/24 05:58:43;;;;;;;0.50;0.40;;;;;;;-144.15;100.00;63241.31;1034713;28;20061;-64
2021/01/24 06:00:13;;;;;;;0.50;0.50;;;;;;;-144.15;100.00;63241.31;1030819;28;20050;-65
2021/01/24 06:01:42;;;;;;;1.65;0.40;;;;;;;-144.15;100.00;63241.31;1031465;28;20033;-64
2021/01/24 06:03:11;;;;;;;0.60;0.60;;;;;;;-144.15;100.00;63241.31;1030618;28;20054;-64
2021/01/24 06:04:40;;;;;;;0.55;0.50;;;;;;;-144.15;100.00;63241.31;1026826;28;20142;-64
2021/01/24 06:06:09;;;;;;;0.52;0.52;;;;;;;-144.15;100.00;63241.31;1031426;28;20042;-64
2021/01/24 06:07:38;;;;;;;0.40;0.40;;;;;;;-144.15;100.00;63241.31;1038895;28;20034;-65
2021/01/24 06:09:10;;;;;;;0.68;0.50;;;;;;;-144.15;100.00;63241.31;1030756;28;20129;-65
2021/01/24 06:10:39;;;;;;;;;;;;;;;-144.15;100.00;63241.31;1032050;28;20575;-65
2021/01/24 06:12:08;;;;;;;0.52;0.50;;;;;;;-144.15;100.00;63241.31;1036665;28;19940;-66
2021/01/24 06:13:37;;;;;;;0.45;0.43;;;;;;;-144.15;100.00;63241.31;1035551;28;20068;-65
2021/01/24 06:15:06;;;;;;;0.60;0.60;;;;;;;-144.15;100.00;63241.31;1035476;28;20080;-65
2021/01/24 06:16:36;;;;;;;0.60;0.30;;;;;;;-144.15;100.00;63241.31;1031680;28;20080;-64
2021/01/24 06:18:31;;;;;;;0.50;0.50;;;;;;;-144.15;100.00;63241.31;1035439;28;20034;-65
2021/01/24 06:20:05;;;;;;;1.52;0.70;;;;;;;-144.15;100.00;63241.31;1035502;28;20066;-64
2021/01/24 06:21:41;;;;;;;0.60;0.50;;;;;;;-144.15;100.00;63241.31;1031400;28;20125;-64
2021/01/24 06:23:13;;;;;;;0.60;0.60;;;;;;;-144.15;100.00;63241.31;1028134;28;20639;-64
2021/01/24 06:24:45;;;;;;;0.40;0.40;;;;;;;-144.15;100.00;63241.31;1031633;28;20057;-64
2021/01/24 06:26:22;;;;;;;0.50;0.50;;;;;;;-144.15;100.00;63241.31;1035403;28;20606;-64
2021/01/24 06:27:53;;;;;;;0.65;0.60;;;;;;;-144.15;100.00;63241.31;1032272;28;20100;-64
2021/01/24 06:29:26;;;;;;;0.70;0.40;;;;;;;-144.15;100.00;63241.31;1026797;28;20101;-64
2021/01/24 06:30:54;;;;;;;0.65;0.55;;;;;;;-144.15;100.00;63241.31;1029036;28;20023;-63
2021/01/24 06:32:27;;;;;;;1.00;0.52;;;;;;;-144.15;100.00;63241.31;1038984;28;20095;-60
2021/01/24 06:34:11;;;;;;;1.10;0.70;;;;;;;-144.15;100.00;63241.31;1039573;28;20128;-64
2021/01/24 06:35:42;;;;;;;1.60;1.10;;;;;;;-144.15;100.00;63241.31;1035452;28;20034;-63
2021/01/24 06:37:18;;;;;;;1.80;0.90;;;;;;;-144.15;100.00;63241.31;1031682;28;20476;-65
2021/01/24 06:38:53;;;;;;;0.90;0.70;;;;;;;-144.15;100.00;63241.31;1035002;28;20030;-63
2021/01/24 06:40:41;;;;;;;1.23;0.80;;;;;;;-144.15;100.00;63241.31;1031321;28;20156;-66
2021/01/24 06:42:11;;;;;;;1.27;0.80;;;;;;;-144.15;100.00;63241.31;1039395;28;20021;-65
2021/01/24 06:43:46;;;;;;;0.70;0.70;;;;;;;-144.15;100.00;63241.31;1031262;28;20037;-65
2021/01/24 06:45:37;;;;;;;1.50;0.80;;;;;;;-144.15;100.00;63241.31;1031942;28;20121;-65
2021/01/24 06:47:07;;;;;;;1.10;1.00;;;;;;;-144.15;100.00;63241.31;1038386;28;20025;-65
2021/01/24 06:48:47;;;;;;;1.38;0.73;;;;;;;-144.15;100.00;63241.31;1039367;28;20485;-64